Terminal Aerodrome Forecast
Issued by NWS

Home | Current Version | Previous Version | Text Only | Print | Product List | Glossary On
Versions: 1 2 3 4 5 6 7 8 9 10 11 12 13 14 15 16 17 18 19 20 21 22 23 24 25
577
FTUS46 KPDT 161120
TAFBDN
TAF
KBDN 161120Z 1612/1712 29008KT P6SM SCT050 BKN200
     FM162100 35006KT P6SM BKN050 OVC100
     FM170600 VRB05KT P6SM BKN060 BKN090=

USA.gov is the U.S. government's official web portal to all federal, state and local government web resources and services.